sensor_id;sensor_type;location;lat;lon;timestamp;P1;durP1;ratioP1;P2;durP2;ratioP2
13590;SDS011;6866;50.778;7.206;2023-04-26T00:02:22;7.90;;;3.45;;
13590;SDS011;6866;50.778;7.206;2023-04-26T00:04:53;13.65;;;3.70;;
13590;SDS011;6866;50.778;7.206;2023-04-26T00:07:21;7.97;;;3.40;;
13590;SDS011;6866;50.778;7.206;2023-04-26T00:09:49;8.18;;;3.08;;
13590;SDS011;6866;50.778;7.206;2023-04-26T00:12:16;9.65;;;3.40;;
13590;SDS011;6866;50.778;7.206;2023-04-26T00:14:42;7.57;;;3.30;;
13590;SDS011;6866;50.778;7.206;2023-04-26T00:17:08;11.90;;;3.50;;
13590;SDS011;6866;50.778;7.206;2023-04-26T00:19:33;15.02;;;3.78;;
13590;SDS011;6866;50.778;7.206;2023-04-26T00:21:59;11.98;;;3.42;;
13590;SDS011;6866;50.778;7.206;2023-04-26T00:24:24;11.38;;;3.55;;
13590;SDS011;6866;50.778;7.206;2023-04-26T00:26:52;7.70;;;2.97;;
13590;SDS011;6866;50.778;7.206;2023-04-26T00:29:21;8.47;;;2.87;;
13590;SDS011;6866;50.778;7.206;2023-04-26T00:31:47;9.55;;;3.00;;
13590;SDS011;6866;50.778;7.206;2023-04-26T00:34:12;12.75;;;3.28;;
13590;SDS011;6866;50.778;7.206;2023-04-26T00:36:38;6.60;;;2.90;;
13590;SDS011;6866;50.778;7.206;2023-04-26T00:39:03;8.30;;;3.47;;
13590;SDS011;6866;50.778;7.206;2023-04-26T00:41:29;8.52;;;2.90;;
13590;SDS011;6866;50.778;7.206;2023-04-26T00:43:54;9.10;;;3.15;;
13590;SDS011;6866;50.778;7.206;2023-04-26T00:46:20;7.18;;;3.10;;
13590;SDS011;6866;50.778;7.206;2023-04-26T00:48:46;10.50;;;3.50;;
13590;SDS011;6866;50.778;7.206;2023-04-26T00:51:12;9.18;;;3.58;;
13590;SDS011;6866;50.778;7.206;2023-04-26T00:53:39;11.65;;;3.22;;
13590;SDS011;6866;50.778;7.206;2023-04-26T00:56:07;9.90;;;3.00;;
13590;SDS011;6866;50.778;7.206;2023-04-26T00:58:33;9.00;;;3.30;;
13590;SDS011;6866;50.778;7.206;2023-04-26T01:03:35;9.18;;;3.03;;
13590;SDS011;6866;50.778;7.206;2023-04-26T01:06:01;11.27;;;3.35;;
13590;SDS011;6866;50.778;7.206;2023-04-26T01:08:26;10.20;;;3.35;;
13590;SDS011;6866;50.778;7.206;2023-04-26T01:10:52;11.00;;;3.13;;
13590;SDS011;6866;50.778;7.206;2023-04-26T01:13:18;10.82;;;3.50;;
13590;SDS011;6866;50.778;7.206;2023-04-26T01:15:44;7.22;;;3.03;;
13590;SDS011;6866;50.778;7.206;2023-04-26T01:18:13;9.45;;;3.42;;
13590;SDS011;6866;50.778;7.206;2023-04-26T01:20:39;12.60;;;3.58;;
13590;SDS011;6866;50.778;7.206;2023-04-26T01:23:06;7.82;;;3.20;;
13590;SDS011;6866;50.778;7.206;2023-04-26T01:25:32;10.32;;;3.70;;
13590;SDS011;6866;50.778;7.206;2023-04-26T01:27:58;9.32;;;3.00;;
13590;SDS011;6866;50.778;7.206;2023-04-26T01:30:24;9.55;;;3.42;;
13590;SDS011;6866;50.778;7.206;2023-04-26T01:32:50;11.23;;;3.58;;
13590;SDS011;6866;50.778;7.206;2023-04-26T01:35:15;7.15;;;3.05;;
13590;SDS011;6866;50.778;7.206;2023-04-26T01:37:41;9.90;;;2.92;;
13590;SDS011;6866;50.778;7.206;2023-04-26T01:40:07;6.90;;;3.13;;
13590;SDS011;6866;50.778;7.206;2023-04-26T01:42:33;6.43;;;3.03;;
13590;SDS011;6866;50.778;7.206;2023-04-26T01:44:59;7.85;;;3.40;;
13590;SDS011;6866;50.778;7.206;2023-04-26T01:47:25;8.65;;;3.35;;
13590;SDS011;6866;50.778;7.206;2023-04-26T01:49:51;10.23;;;3.00;;
13590;SDS011;6866;50.778;7.206;2023-04-26T01:52:17;9.23;;;3.28;;
13590;SDS011;6866;50.778;7.206;2023-04-26T01:54:42;8.70;;;3.17;;
13590;SDS011;6866;50.778;7.206;2023-04-26T01:57:08;8.98;;;3.30;;
13590;SDS011;6866;50.778;7.206;2023-04-26T01:59:33;7.75;;;3.00;;
13590;SDS011;6866;50.778;7.206;2023-04-26T02:01:59;8.75;;;3.47;;
13590;SDS011;6866;50.778;7.206;2023-04-26T02:04:25;8.82;;;3.47;;
13590;SDS011;6866;50.778;7.206;2023-04-26T02:06:51;10.85;;;3.25;;
13590;SDS011;6866;50.778;7.206;2023-04-26T02:09:17;14.18;;;4.50;;
13590;SDS011;6866;50.778;7.206;2023-04-26T02:11:42;7.22;;;3.20;;
13590;SDS011;6866;50.778;7.206;2023-04-26T02:14:08;7.97;;;3.15;;
13590;SDS011;6866;50.778;7.206;2023-04-26T02:16:33;10.00;;;3.28;;
13590;SDS011;6866;50.778;7.206;2023-04-26T02:18:59;7.75;;;3.28;;
13590;SDS011;6866;50.778;7.206;2023-04-26T02:21:25;10.88;;;3.53;;
13590;SDS011;6866;50.778;7.206;2023-04-26T02:23:52;7.88;;;3.33;;
13590;SDS011;6866;50.778;7.206;2023-04-26T02:26:17;10.85;;;3.70;;
13590;SDS011;6866;50.778;7.206;2023-04-26T02:28:43;5.93;;;2.97;;
13590;SDS011;6866;50.778;7.206;2023-04-26T02:31:08;9.93;;;3.40;;
13590;SDS011;6866;50.778;7.206;2023-04-26T02:33:35;7.38;;;2.95;;
13590;SDS011;6866;50.778;7.206;2023-04-26T02:36:04;6.45;;;2.90;;
13590;SDS011;6866;50.778;7.206;2023-04-26T02:38:31;8.82;;;2.97;;
13590;SDS011;6866;50.778;7.206;2023-04-26T02:41:01;10.25;;;3.47;;
13590;SDS011;6866;50.778;7.206;2023-04-26T02:43:27;11.27;;;3.60;;
13590;SDS011;6866;50.778;7.206;2023-04-26T02:45:53;7.55;;;3.20;;
13590;SDS011;6866;50.778;7.206;2023-04-26T02:48:19;11.55;;;3.40;;
13590;SDS011;6866;50.778;7.206;2023-04-26T02:50:46;13.18;;;3.15;;
13590;SDS011;6866;50.778;7.206;2023-04-26T02:53:11;10.88;;;3.20;;
13590;SDS011;6866;50.778;7.206;2023-04-26T02:55:38;8.57;;;4.15;;
13590;SDS011;6866;50.778;7.206;2023-04-26T02:58:03;9.23;;;3.45;;
13590;SDS011;6866;50.778;7.206;2023-04-26T03:00:30;8.43;;;3.20;;
13590;SDS011;6866;50.778;7.206;2023-04-26T03:02:57;8.13;;;3.40;;
13590;SDS011;6866;50.778;7.206;2023-04-26T03:05:23;11.65;;;3.67;;
13590;SDS011;6866;50.778;7.206;2023-04-26T03:07:49;13.07;;;3.58;;
13590;SDS011;6866;50.778;7.206;2023-04-26T03:10:15;11.05;;;3.17;;
13590;SDS011;6866;50.778;7.206;2023-04-26T03:12:40;10.60;;;3.40;;
13590;SDS011;6866;50.778;7.206;2023-04-26T03:15:06;11.90;;;3.67;;
13590;SDS011;6866;50.778;7.206;2023-04-26T03:17:32;6.75;;;3.20;;
13590;SDS011;6866;50.778;7.206;2023-04-26T03:19:57;10.23;;;3.42;;
13590;SDS011;6866;50.778;7.206;2023-04-26T03:22:23;9.60;;;3.45;;
13590;SDS011;6866;50.778;7.206;2023-04-26T03:24:48;9.32;;;3.55;;
13590;SDS011;6866;50.778;7.206;2023-04-26T03:27:14;9.20;;;3.45;;
13590;SDS011;6866;50.778;7.206;2023-04-26T03:29:39;11.23;;;3.47;;
13590;SDS011;6866;50.778;7.206;2023-04-26T03:32:05;11.43;;;3.53;;
13590;SDS011;6866;50.778;7.206;2023-04-26T03:34:31;8.35;;;3.63;;
13590;SDS011;6866;50.778;7.206;2023-04-26T03:36:57;6.75;;;3.35;;
13590;SDS011;6866;50.778;7.206;2023-04-26T03:39:22;9.38;;;3.72;;
13590;SDS011;6866;50.778;7.206;2023-04-26T03:41:48;9.15;;;3.45;;
13590;SDS011;6866;50.778;7.206;2023-04-26T03:44:13;8.00;;;3.50;;
13590;SDS011;6866;50.778;7.206;2023-04-26T03:46:39;9.35;;;4.13;;
13590;SDS011;6866;50.778;7.206;2023-04-26T03:49:05;8.63;;;3.85;;
13590;SDS011;6866;50.778;7.206;2023-04-26T03:51:30;10.20;;;3.67;;
13590;SDS011;6866;50.778;7.206;2023-04-26T03:53:57;9.63;;;3.80;;
13590;SDS011;6866;50.778;7.206;2023-04-26T03:56:23;9.13;;;3.28;;
13590;SDS011;6866;50.778;7.206;2023-04-26T03:58:48;9.35;;;3.90;;
13590;SDS011;6866;50.778;7.206;2023-04-26T04:01:14;12.63;;;3.97;;
13590;SDS011;6866;50.778;7.206;2023-04-26T04:03:40;8.18;;;3.55;;
13590;SDS011;6866;50.778;7.206;2023-04-26T04:06:05;9.40;;;3.80;;
13590;SDS011;6866;50.778;7.206;2023-04-26T04:08:31;11.88;;;3.80;;
13590;SDS011;6866;50.778;7.206;2023-04-26T04:10:58;10.02;;;3.63;;
13590;SDS011;6866;50.778;7.206;2023-04-26T04:13:23;10.75;;;4.25;;
13590;SDS011;6866;50.778;7.206;2023-04-26T04:15:50;14.88;;;4.28;;
13590;SDS011;6866;50.778;7.206;2023-04-26T04:18:15;14.23;;;4.43;;
13590;SDS011;6866;50.778;7.206;2023-04-26T04:20:41;11.02;;;4.50;;
13590;SDS011;6866;50.778;7.206;2023-04-26T04:23:06;13.85;;;4.15;;
13590;SDS011;6866;50.778;7.206;2023-04-26T04:25:32;11.88;;;4.03;;
13590;SDS011;6866;50.778;7.206;2023-04-26T04:27:59;12.57;;;4.10;;
13590;SDS011;6866;50.778;7.206;2023-04-26T04:30:26;11.18;;;4.80;;
13590;SDS011;6866;50.778;7.206;2023-04-26T04:32:53;12.52;;;4.03;;
13590;SDS011;6866;50.778;7.206;2023-04-26T04:35:19;12.32;;;4.10;;
13590;SDS011;6866;50.778;7.206;2023-04-26T04:37:44;12.90;;;4.40;;
13590;SDS011;6866;50.778;7.206;2023-04-26T04:40:10;11.85;;;4.75;;
13590;SDS011;6866;50.778;7.206;2023-04-26T04:42:37;9.63;;;3.88;;
13590;SDS011;6866;50.778;7.206;2023-04-26T04:45:03;10.48;;;4.60;;
13590;SDS011;6866;50.778;7.206;2023-04-26T04:47:29;12.82;;;4.40;;
13590;SDS011;6866;50.778;7.206;2023-04-26T04:49:55;13.20;;;4.85;;
13590;SDS011;6866;50.778;7.206;2023-04-26T04:52:20;10.65;;;3.88;;
13590;SDS011;6866;50.778;7.206;2023-04-26T04:54:46;10.98;;;4.22;;
13590;SDS011;6866;50.778;7.206;2023-04-26T04:57:12;11.70;;;4.60;;
13590;SDS011;6866;50.778;7.206;2023-04-26T04:59:40;10.23;;;3.90;;
13590;SDS011;6866;50.778;7.206;2023-04-26T05:02:06;8.85;;;4.20;;
13590;SDS011;6866;50.778;7.206;2023-04-26T05:04:31;10.52;;;4.05;;
13590;SDS011;6866;50.778;7.206;2023-04-26T05:06:58;11.20;;;4.40;;
13590;SDS011;6866;50.778;7.206;2023-04-26T05:09:24;12.93;;;4.40;;
13590;SDS011;6866;50.778;7.206;2023-04-26T05:11:50;12.55;;;4.22;;
13590;SDS011;6866;50.778;7.206;2023-04-26T05:14:16;8.80;;;3.90;;
13590;SDS011;6866;50.778;7.206;2023-04-26T05:16:41;9.85;;;4.05;;
13590;SDS011;6866;50.778;7.206;2023-04-26T05:19:07;12.13;;;4.82;;
13590;SDS011;6866;50.778;7.206;2023-04-26T05:21:33;10.43;;;4.28;;
13590;SDS011;6866;50.778;7.206;2023-04-26T05:23:58;14.20;;;4.60;;
13590;SDS011;6866;50.778;7.206;2023-04-26T05:26:24;11.27;;;4.78;;
13590;SDS011;6866;50.778;7.206;2023-04-26T05:28:50;17.60;;;5.03;;
13590;SDS011;6866;50.778;7.206;2023-04-26T05:31:16;18.92;;;5.35;;
13590;SDS011;6866;50.778;7.206;2023-04-26T05:33:41;21.00;;;5.88;;
13590;SDS011;6866;50.778;7.206;2023-04-26T05:36:07;16.13;;;5.68;;
13590;SDS011;6866;50.778;7.206;2023-04-26T05:38:33;20.27;;;5.63;;
13590;SDS011;6866;50.778;7.206;2023-04-26T05:41:00;13.57;;;5.68;;
13590;SDS011;6866;50.778;7.206;2023-04-26T05:43:25;15.77;;;5.53;;
13590;SDS011;6866;50.778;7.206;2023-04-26T05:48:17;15.75;;;5.22;;
13590;SDS011;6866;50.778;7.206;2023-04-26T05:50:44;14.63;;;5.82;;
13590;SDS011;6866;50.778;7.206;2023-04-26T05:53:09;13.63;;;5.45;;
13590;SDS011;6866;50.778;7.206;2023-04-26T05:55:35;20.88;;;5.70;;
13590;SDS011;6866;50.778;7.206;2023-04-26T05:58:01;18.67;;;5.28;;
13590;SDS011;6866;50.778;7.206;2023-04-26T06:00:26;22.63;;;6.78;;
13590;SDS011;6866;50.778;7.206;2023-04-26T06:02:52;19.27;;;5.60;;
13590;SDS011;6866;50.778;7.206;2023-04-26T06:05:18;18.88;;;5.90;;
13590;SDS011;6866;50.778;7.206;2023-04-26T06:07:43;12.43;;;5.22;;
13590;SDS011;6866;50.778;7.206;2023-04-26T06:12:37;15.00;;;4.82;;
13590;SDS011;6866;50.778;7.206;2023-04-26T06:15:03;12.70;;;5.20;;
13590;SDS011;6866;50.778;7.206;2023-04-26T06:17:29;12.15;;;4.95;;
13590;SDS011;6866;50.778;7.206;2023-04-26T06:24:45;11.88;;;4.88;;
13590;SDS011;6866;50.778;7.206;2023-04-26T06:27:11;14.77;;;5.00;;
13590;SDS011;6866;50.778;7.206;2023-04-26T06:29:36;12.65;;;5.35;;
13590;SDS011;6866;50.778;7.206;2023-04-26T06:32:02;13.70;;;5.25;;
13590;SDS011;6866;50.778;7.206;2023-04-26T06:34:27;15.85;;;6.15;;
13590;SDS011;6866;50.778;7.206;2023-04-26T06:36:54;12.73;;;5.70;;
13590;SDS011;6866;50.778;7.206;2023-04-26T06:39:19;13.15;;;5.10;;
13590;SDS011;6866;50.778;7.206;2023-04-26T06:41:45;12.05;;;5.28;;
13590;SDS011;6866;50.778;7.206;2023-04-26T06:56:19;14.18;;;6.32;;
13590;SDS011;6866;50.778;7.206;2023-04-26T06:58:58;15.85;;;6.75;;
13590;SDS011;6866;50.778;7.206;2023-04-26T07:01:25;13.63;;;6.47;;
13590;SDS011;6866;50.778;7.206;2023-04-26T07:03:53;11.88;;;6.72;;
13590;SDS011;6866;50.778;7.206;2023-04-26T07:06:21;13.35;;;6.50;;
13590;SDS011;6866;50.778;7.206;2023-04-26T07:08:48;13.32;;;6.65;;
13590;SDS011;6866;50.778;7.206;2023-04-26T07:11:13;14.20;;;7.43;;
13590;SDS011;6866;50.778;7.206;2023-04-26T07:13:39;16.58;;;7.05;;
13590;SDS011;6866;50.778;7.206;2023-04-26T07:16:05;14.98;;;7.18;;
13590;SDS011;6866;50.778;7.206;2023-04-26T07:18:30;15.35;;;8.13;;
13590;SDS011;6866;50.778;7.206;2023-04-26T07:20:56;19.92;;;9.00;;
13590;SDS011;6866;50.778;7.206;2023-04-26T07:23:21;14.65;;;8.98;;
13590;SDS011;6866;50.778;7.206;2023-04-26T07:25:47;19.48;;;10.50;;
13590;SDS011;6866;50.778;7.206;2023-04-26T07:28:12;22.65;;;10.45;;
13590;SDS011;6866;50.778;7.206;2023-04-26T07:30:38;20.92;;;10.68;;
13590;SDS011;6866;50.778;7.206;2023-04-26T07:33:04;21.67;;;9.77;;
13590;SDS011;6866;50.778;7.206;2023-04-26T07:35:30;19.65;;;9.52;;
13590;SDS011;6866;50.778;7.206;2023-04-26T07:37:55;18.55;;;9.57;;
13590;SDS011;6866;50.778;7.206;2023-04-26T07:40:21;20.50;;;9.30;;
13590;SDS011;6866;50.778;7.206;2023-04-26T07:42:48;17.17;;;8.82;;
13590;SDS011;6866;50.778;7.206;2023-04-26T07:45:14;18.25;;;9.32;;
13590;SDS011;6866;50.778;7.206;2023-04-26T07:47:40;20.73;;;10.18;;
13590;SDS011;6866;50.778;7.206;2023-04-26T07:50:05;18.10;;;9.75;;
13590;SDS011;6866;50.778;7.206;2023-04-26T07:52:32;20.30;;;9.52;;
13590;SDS011;6866;50.778;7.206;2023-04-26T07:54:58;19.45;;;11.07;;
13590;SDS011;6866;50.778;7.206;2023-04-26T07:57:23;18.30;;;10.65;;
13590;SDS011;6866;50.778;7.206;2023-04-26T07:59:49;20.95;;;10.85;;
13590;SDS011;6866;50.778;7.206;2023-04-26T08:02:15;17.50;;;9.90;;
13590;SDS011;6866;50.778;7.206;2023-04-26T08:04:45;21.35;;;9.35;;
13590;SDS011;6866;50.778;7.206;2023-04-26T08:09:38;18.77;;;10.25;;
13590;SDS011;6866;50.778;7.206;2023-04-26T08:12:03;22.55;;;10.60;;
13590;SDS011;6866;50.778;7.206;2023-04-26T08:14:29;25.38;;;10.18;;
13590;SDS011;6866;50.778;7.206;2023-04-26T08:16:55;46.45;;;10.77;;
13590;SDS011;6866;50.778;7.206;2023-04-26T08:19:20;21.95;;;8.80;;
13590;SDS011;6866;50.778;7.206;2023-04-26T08:21:46;16.45;;;6.97;;
13590;SDS011;6866;50.778;7.206;2023-04-26T08:24:12;13.43;;;5.03;;
13590;SDS011;6866;50.778;7.206;2023-04-26T08:29:03;16.88;;;7.10;;
13590;SDS011;6866;50.778;7.206;2023-04-26T08:31:28;13.40;;;6.90;;
13590;SDS011;6866;50.778;7.206;2023-04-26T08:36:20;12.07;;;6.25;;
13590;SDS011;6866;50.778;7.206;2023-04-26T08:38:45;15.00;;;6.20;;
13590;SDS011;6866;50.778;7.206;2023-04-26T08:41:11;13.05;;;5.90;;
13590;SDS011;6866;50.778;7.206;2023-04-26T08:43:39;16.13;;;6.18;;
13590;SDS011;6866;50.778;7.206;2023-04-26T08:46:06;12.95;;;5.72;;
13590;SDS011;6866;50.778;7.206;2023-04-26T08:48:35;13.37;;;6.07;;
13590;SDS011;6866;50.778;7.206;2023-04-26T08:51:01;14.13;;;6.10;;
13590;SDS011;6866;50.778;7.206;2023-04-26T08:55:55;14.70;;;5.65;;
13590;SDS011;6866;50.778;7.206;2023-04-26T08:58:21;18.98;;;7.30;;
13590;SDS011;6866;50.778;7.206;2023-04-26T09:00:47;18.10;;;5.63;;
13590;SDS011;6866;50.778;7.206;2023-04-26T09:03:14;20.40;;;6.53;;
13590;SDS011;6866;50.778;7.206;2023-04-26T09:05:40;15.27;;;6.13;;
13590;SDS011;6866;50.778;7.206;2023-04-26T09:08:11;16.33;;;6.15;;
13590;SDS011;6866;50.778;7.206;2023-04-26T09:10:40;16.20;;;5.50;;
13590;SDS011;6866;50.778;7.206;2023-04-26T09:13:06;13.63;;;5.22;;
13590;SDS011;6866;50.778;7.206;2023-04-26T09:15:31;14.43;;;5.93;;
13590;SDS011;6866;50.778;7.206;2023-04-26T09:18:03;14.55;;;5.30;;
13590;SDS011;6866;50.778;7.206;2023-04-26T09:20:44;13.18;;;5.30;;
13590;SDS011;6866;50.778;7.206;2023-04-26T09:23:10;13.80;;;3.60;;
13590;SDS011;6866;50.778;7.206;2023-04-26T09:25:36;7.78;;;3.50;;
13590;SDS011;6866;50.778;7.206;2023-04-26T09:28:02;11.88;;;4.40;;
13590;SDS011;6866;50.778;7.206;2023-04-26T09:30:42;14.93;;;4.57;;
13590;SDS011;6866;50.778;7.206;2023-04-26T09:33:07;15.63;;;5.32;;
13590;SDS011;6866;50.778;7.206;2023-04-26T09:35:34;11.32;;;5.20;;
13590;SDS011;6866;50.778;7.206;2023-04-26T09:38:13;11.73;;;4.90;;
13590;SDS011;6866;50.778;7.206;2023-04-26T09:40:44;13.30;;;4.93;;
13590;SDS011;6866;50.778;7.206;2023-04-26T09:43:14;16.05;;;5.18;;
13590;SDS011;6866;50.778;7.206;2023-04-26T09:45:51;9.30;;;4.05;;
13590;SDS011;6866;50.778;7.206;2023-04-26T09:50:53;10.55;;;3.53;;
13590;SDS011;6866;50.778;7.206;2023-04-26T09:53:26;7.03;;;3.00;;
13590;SDS011;6866;50.778;7.206;2023-04-26T09:55:53;10.95;;;2.90;;
13590;SDS011;6866;50.778;7.206;2023-04-26T09:58:29;7.80;;;2.40;;
13590;SDS011;6866;50.778;7.206;2023-04-26T10:00:55;8.75;;;3.08;;
13590;SDS011;6866;50.778;7.206;2023-04-26T10:03:22;4.72;;;1.83;;
13590;SDS011;6866;50.778;7.206;2023-04-26T10:05:48;7.72;;;2.45;;
13590;SDS011;6866;50.778;7.206;2023-04-26T10:08:14;6.25;;;2.55;;
13590;SDS011;6866;50.778;7.206;2023-04-26T10:10:40;7.00;;;2.30;;
13590;SDS011;6866;50.778;7.206;2023-04-26T10:13:06;12.32;;;2.85;;
13590;SDS011;6866;50.778;7.206;2023-04-26T10:15:32;7.97;;;2.75;;
13590;SDS011;6866;50.778;7.206;2023-04-26T10:17:59;8.70;;;2.97;;
13590;SDS011;6866;50.778;7.206;2023-04-26T10:20:26;9.20;;;3.22;;
13590;SDS011;6866;50.778;7.206;2023-04-26T10:22:53;9.15;;;2.72;;
13590;SDS011;6866;50.778;7.206;2023-04-26T10:25:34;8.27;;;3.00;;
13590;SDS011;6866;50.778;7.206;2023-04-26T10:28:02;6.90;;;2.60;;
13590;SDS011;6866;50.778;7.206;2023-04-26T10:30:28;9.23;;;3.15;;
13590;SDS011;6866;50.778;7.206;2023-04-26T10:35:19;10.25;;;2.95;;
13590;SDS011;6866;50.778;7.206;2023-04-26T10:38:28;8.15;;;2.88;;
13590;SDS011;6866;50.778;7.206;2023-04-26T10:40:38;10.20;;;2.90;;
13590;SDS011;6866;50.778;7.206;2023-04-26T10:45:36;9.20;;;3.10;;
13590;SDS011;6866;50.778;7.206;2023-04-26T10:56:14;10.30;;;3.08;;
13590;SDS011;6866;50.778;7.206;2023-04-26T10:59:09;11.50;;;2.80;;
13590;SDS011;6866;50.778;7.206;2023-04-26T11:01:36;5.72;;;2.70;;
13590;SDS011;6866;50.778;7.206;2023-04-26T11:04:06;8.13;;;3.40;;
13590;SDS011;6866;50.778;7.206;2023-04-26T11:06:51;9.90;;;3.88;;
13590;SDS011;6866;50.778;7.206;2023-04-26T11:12:09;9.80;;;2.53;;
13590;SDS011;6866;50.778;7.206;2023-04-26T11:14:36;7.78;;;2.80;;
13590;SDS011;6866;50.778;7.206;2023-04-26T11:17:05;9.27;;;2.58;;
13590;SDS011;6866;50.778;7.206;2023-04-26T11:19:32;7.15;;;2.45;;
13590;SDS011;6866;50.778;7.206;2023-04-26T11:22:01;8.75;;;2.63;;
13590;SDS011;6866;50.778;7.206;2023-04-26T11:24:30;9.27;;;2.78;;
13590;SDS011;6866;50.778;7.206;2023-04-26T11:26:57;8.93;;;2.90;;
13590;SDS011;6866;50.778;7.206;2023-04-26T11:29:23;12.85;;;2.60;;
13590;SDS011;6866;50.778;7.206;2023-04-26T11:31:53;7.65;;;2.45;;
13590;SDS011;6866;50.778;7.206;2023-04-26T11:36:58;8.32;;;2.33;;
13590;SDS011;6866;50.778;7.206;2023-04-26T11:39:25;9.07;;;2.67;;
13590;SDS011;6866;50.778;7.206;2023-04-26T11:41:54;9.40;;;2.20;;
13590;SDS011;6866;50.778;7.206;2023-04-26T11:44:31;8.15;;;2.50;;
13590;SDS011;6866;50.778;7.206;2023-04-26T11:46:57;10.27;;;3.00;;
13590;SDS011;6866;50.778;7.206;2023-04-26T11:49:24;7.85;;;3.40;;
13590;SDS011;6866;50.778;7.206;2023-04-26T11:51:50;7.88;;;3.22;;
13590;SDS011;6866;50.778;7.206;2023-04-26T11:54:28;7.28;;;3.00;;
13590;SDS011;6866;50.778;7.206;2023-04-26T11:56:58;8.38;;;3.30;;
13590;SDS011;6866;50.778;7.206;2023-04-26T12:01:51;8.30;;;2.50;;
13590;SDS011;6866;50.778;7.206;2023-04-26T12:04:17;7.28;;;2.45;;
13590;SDS011;6866;50.778;7.206;2023-04-26T12:06:43;7.57;;;2.90;;
13590;SDS011;6866;50.778;7.206;2023-04-26T12:09:10;6.30;;;3.00;;
13590;SDS011;6866;50.778;7.206;2023-04-26T12:11:36;6.90;;;2.50;;
13590;SDS011;6866;50.778;7.206;2023-04-26T12:14:03;7.15;;;2.40;;
13590;SDS011;6866;50.778;7.206;2023-04-26T12:16:29;6.15;;;2.13;;
13590;SDS011;6866;50.778;7.206;2023-04-26T12:18:55;8.35;;;2.40;;
13590;SDS011;6866;50.778;7.206;2023-04-26T12:21:21;7.57;;;2.67;;
13590;SDS011;6866;50.778;7.206;2023-04-26T12:23:48;9.73;;;3.50;;
13590;SDS011;6866;50.778;7.206;2023-04-26T12:26:14;9.20;;;2.50;;
13590;SDS011;6866;50.778;7.206;2023-04-26T12:28:40;6.28;;;2.20;;
13590;SDS011;6866;50.778;7.206;2023-04-26T12:31:06;10.00;;;2.60;;
13590;SDS011;6866;50.778;7.206;2023-04-26T12:33:32;6.35;;;2.28;;
13590;SDS011;6866;50.778;7.206;2023-04-26T12:36:31;5.72;;;2.15;;
13590;SDS011;6866;50.778;7.206;2023-04-26T12:38:50;9.25;;;2.72;;
13590;SDS011;6866;50.778;7.206;2023-04-26T12:41:15;6.43;;;2.55;;
13590;SDS011;6866;50.778;7.206;2023-04-26T12:43:41;7.53;;;2.65;;
13590;SDS011;6866;50.778;7.206;2023-04-26T12:46:07;10.32;;;2.80;;
13590;SDS011;6866;50.778;7.206;2023-04-26T12:48:32;8.15;;;2.50;;
13590;SDS011;6866;50.778;7.206;2023-04-26T12:50:58;9.43;;;2.80;;
13590;SDS011;6866;50.778;7.206;2023-04-26T12:53:24;9.70;;;2.60;;
13590;SDS011;6866;50.778;7.206;2023-04-26T12:55:49;8.23;;;2.72;;
13590;SDS011;6866;50.778;7.206;2023-04-26T12:58:15;8.73;;;2.30;;
13590;SDS011;6866;50.778;7.206;2023-04-26T13:00:41;8.00;;;2.92;;
13590;SDS011;6866;50.778;7.206;2023-04-26T13:03:06;7.53;;;2.80;;
13590;SDS011;6866;50.778;7.206;2023-04-26T13:05:32;11.32;;;2.72;;
13590;SDS011;6866;50.778;7.206;2023-04-26T13:07:57;8.32;;;2.75;;
13590;SDS011;6866;50.778;7.206;2023-04-26T13:10:25;7.70;;;2.60;;
13590;SDS011;6866;50.778;7.206;2023-04-26T13:12:51;5.68;;;2.35;;
13590;SDS011;6866;50.778;7.206;2023-04-26T13:15:17;7.22;;;2.53;;
13590;SDS011;6866;50.778;7.206;2023-04-26T13:17:43;6.05;;;2.30;;
13590;SDS011;6866;50.778;7.206;2023-04-26T13:20:09;9.18;;;2.42;;
13590;SDS011;6866;50.778;7.206;2023-04-26T13:22:35;7.47;;;2.72;;
13590;SDS011;6866;50.778;7.206;2023-04-26T13:25:04;6.85;;;2.30;;
13590;SDS011;6866;50.778;7.206;2023-04-26T13:27:30;6.05;;;2.70;;
13590;SDS011;6866;50.778;7.206;2023-04-26T13:29:56;8.00;;;2.50;;
13590;SDS011;6866;50.778;7.206;2023-04-26T13:32:21;7.68;;;2.40;;
13590;SDS011;6866;50.778;7.206;2023-04-26T13:34:48;7.72;;;2.50;;
13590;SDS011;6866;50.778;7.206;2023-04-26T13:37:14;8.15;;;2.72;;
13590;SDS011;6866;50.778;7.206;2023-04-26T13:39:41;8.35;;;2.40;;
13590;SDS011;6866;50.778;7.206;2023-04-26T13:42:07;7.88;;;3.40;;
13590;SDS011;6866;50.778;7.206;2023-04-26T13:44:34;8.68;;;3.35;;
13590;SDS011;6866;50.778;7.206;2023-04-26T13:46:59;7.82;;;3.30;;
13590;SDS011;6866;50.778;7.206;2023-04-26T13:49:25;10.77;;;3.63;;
13590;SDS011;6866;50.778;7.206;2023-04-26T13:51:51;7.25;;;3.35;;
13590;SDS011;6866;50.778;7.206;2023-04-26T13:54:18;8.10;;;3.42;;
13590;SDS011;6866;50.778;7.206;2023-04-26T13:56:46;8.82;;;3.78;;
13590;SDS011;6866;50.778;7.206;2023-04-26T13:59:12;11.52;;;4.05;;
13590;SDS011;6866;50.778;7.206;2023-04-26T14:01:37;10.07;;;3.90;;
13590;SDS011;6866;50.778;7.206;2023-04-26T14:04:04;10.40;;;3.65;;
13590;SDS011;6866;50.778;7.206;2023-04-26T14:06:32;9.13;;;3.60;;
13590;SDS011;6866;50.778;7.206;2023-04-26T14:08:58;11.02;;;3.88;;
13590;SDS011;6866;50.778;7.206;2023-04-26T14:11:24;11.68;;;4.00;;
13590;SDS011;6866;50.778;7.206;2023-04-26T14:13:50;10.30;;;4.28;;
13590;SDS011;6866;50.778;7.206;2023-04-26T14:16:19;9.60;;;3.78;;
13590;SDS011;6866;50.778;7.206;2023-04-26T14:18:46;7.82;;;4.30;;
13590;SDS011;6866;50.778;7.206;2023-04-26T14:21:12;7.90;;;4.40;;
13590;SDS011;6866;50.778;7.206;2023-04-26T14:23:38;13.43;;;4.07;;
13590;SDS011;6866;50.778;7.206;2023-04-26T14:26:04;8.95;;;4.07;;
13590;SDS011;6866;50.778;7.206;2023-04-26T14:28:31;10.68;;;4.30;;
13590;SDS011;6866;50.778;7.206;2023-04-26T14:30:56;8.20;;;3.70;;
13590;SDS011;6866;50.778;7.206;2023-04-26T14:33:22;9.98;;;3.85;;
13590;SDS011;6866;50.778;7.206;2023-04-26T14:35:48;7.03;;;3.72;;
13590;SDS011;6866;50.778;7.206;2023-04-26T14:38:14;7.65;;;4.07;;
13590;SDS011;6866;50.778;7.206;2023-04-26T14:40:40;7.22;;;3.70;;
13590;SDS011;6866;50.778;7.206;2023-04-26T14:43:06;11.02;;;4.00;;
13590;SDS011;6866;50.778;7.206;2023-04-26T14:45:32;7.13;;;4.05;;
13590;SDS011;6866;50.778;7.206;2023-04-26T14:48:01;11.45;;;4.00;;
13590;SDS011;6866;50.778;7.206;2023-04-26T14:50:27;8.40;;;4.10;;
13590;SDS011;6866;50.778;7.206;2023-04-26T14:52:54;9.25;;;3.58;;
13590;SDS011;6866;50.778;7.206;2023-04-26T14:55:20;10.98;;;4.03;;
13590;SDS011;6866;50.778;7.206;2023-04-26T14:57:51;10.10;;;3.65;;
13590;SDS011;6866;50.778;7.206;2023-04-26T15:00:17;9.43;;;3.80;;
13590;SDS011;6866;50.778;7.206;2023-04-26T15:02:43;12.10;;;4.07;;
13590;SDS011;6866;50.778;7.206;2023-04-26T15:05:09;9.75;;;3.60;;
13590;SDS011;6866;50.778;7.206;2023-04-26T15:07:36;9.23;;;3.05;;
13590;SDS011;6866;50.778;7.206;2023-04-26T15:10:02;8.60;;;3.17;;
13590;SDS011;6866;50.778;7.206;2023-04-26T15:12:29;10.25;;;3.17;;
13590;SDS011;6866;50.778;7.206;2023-04-26T15:14:55;9.45;;;2.85;;
13590;SDS011;6866;50.778;7.206;2023-04-26T15:17:20;11.23;;;3.38;;
13590;SDS011;6866;50.778;7.206;2023-04-26T15:19:46;11.85;;;3.88;;
13590;SDS011;6866;50.778;7.206;2023-04-26T15:22:11;10.07;;;3.50;;
13590;SDS011;6866;50.778;7.206;2023-04-26T15:24:37;10.73;;;3.38;;
13590;SDS011;6866;50.778;7.206;2023-04-26T15:27:03;9.60;;;3.47;;
13590;SDS011;6866;50.778;7.206;2023-04-26T15:29:32;8.45;;;3.05;;
13590;SDS011;6866;50.778;7.206;2023-04-26T15:31:58;11.18;;;3.92;;
13590;SDS011;6866;50.778;7.206;2023-04-26T15:34:23;11.07;;;3.20;;
13590;SDS011;6866;50.778;7.206;2023-04-26T15:36:50;10.57;;;3.58;;
13590;SDS011;6866;50.778;7.206;2023-04-26T15:39:16;11.27;;;3.85;;
13590;SDS011;6866;50.778;7.206;2023-04-26T15:41:41;12.75;;;3.45;;
13590;SDS011;6866;50.778;7.206;2023-04-26T15:44:07;8.48;;;3.30;;
13590;SDS011;6866;50.778;7.206;2023-04-26T15:46:32;8.52;;;2.95;;
13590;SDS011;6866;50.778;7.206;2023-04-26T15:48:58;10.93;;;3.33;;